New Munich, Minnesota
Current Conditions -  °F | °C
As of 4:32 PM on Wednesday 22 Oct 2014 (Local Time) from KD39 Reporting Station
Broken Clouds Broken Clouds  
Wind Chill: 62°   Ceiling: 9000
Heat Index: 62°   Visibility: 10mi
Dew Point: 45°   Wind: 15mph
Humidity: 54%   Direction: 140°SE
Pressure: 29.95"   Gusts: 21mph
Location:  45.63°N, 94.75°W
Report Text: KD39 222132Z AUTO 14013G18KT 10SM BKN090 17/07 A2995 RMK AO2 T01650071
Loading
Personal Weather Stations






























Interactive Weather Map
Tropical Storm Tracking
New forecast layout! Learn more

10-Day Weather Forecast

Advertisements
Track Severe Weather on mobile